createdAt,value
2017-10-25T00:00:17.256Z,0
2017-10-25T00:01:18.683Z,0
2017-10-25T00:02:20.102Z,0
2017-10-25T00:03:21.526Z,0
2017-10-25T00:04:22.949Z,0
2017-10-25T00:05:24.368Z,0
2017-10-25T00:06:25.790Z,0
2017-10-25T00:07:27.203Z,0
2017-10-25T00:08:28.624Z,0
2017-10-25T00:09:30.052Z,0
2017-10-25T00:10:31.470Z,0
2017-10-25T00:11:32.892Z,0
2017-10-25T00:12:34.324Z,0
2017-10-25T00:13:35.744Z,0
2017-10-25T00:14:37.180Z,0
2017-10-25T00:15:38.613Z,0
2017-10-25T00:16:40.035Z,0
2017-10-25T00:17:41.465Z,0
2017-10-25T00:18:42.848Z,0
2017-10-25T00:19:44.279Z,0
2017-10-25T00:20:45.708Z,0
2017-10-25T00:21:47.177Z,0
2017-10-25T00:22:48.596Z,0
2017-10-25T00:23:50.014Z,0
2017-10-25T00:24:51.450Z,0
2017-10-25T00:25:52.883Z,0
2017-10-25T00:26:54.316Z,0
2017-10-25T00:27:55.741Z,0
2017-10-25T00:28:57.169Z,0
2017-10-25T00:29:58.593Z,0
2017-10-25T00:31:00.020Z,0
2017-10-25T00:32:01.444Z,0
2017-10-25T00:33:02.880Z,0
2017-10-25T00:34:04.307Z,0
2017-10-25T00:35:05.731Z,0
2017-10-25T00:36:07.148Z,0
2017-10-25T00:37:08.577Z,0
2017-10-25T00:38:09.998Z,0
2017-10-25T00:39:11.421Z,0
2017-10-25T00:40:12.874Z,0
2017-10-25T00:41:14.290Z,0
2017-10-25T00:42:15.712Z,0
2017-10-25T00:43:17.135Z,0
2017-10-25T00:44:18.561Z,0
2017-10-25T00:45:19.993Z,0
2017-10-25T00:46:21.456Z,0
2017-10-25T00:47:22.918Z,0
2017-10-25T00:48:24.324Z,0
2017-10-25T00:49:25.745Z,0
2017-10-25T00:50:27.179Z,0
2017-10-25T00:51:28.602Z,0
2017-10-25T00:52:30.024Z,0
2017-10-25T00:53:31.443Z,0
2017-10-25T00:54:32.870Z,0
2017-10-25T00:55:34.290Z,0
2017-10-25T00:56:35.708Z,0
2017-10-25T00:57:37.120Z,0
2017-10-25T00:58:38.543Z,0
2017-10-25T00:59:39.962Z,0
2017-10-25T01:00:41.384Z,0
2017-10-25T01:01:42.815Z,0
2017-10-25T01:02:44.240Z,0
2017-10-25T01:03:45.652Z,0
2017-10-25T01:04:47.065Z,0
2017-10-25T01:05:48.482Z,0
2017-10-25T01:06:49.908Z,0
2017-10-25T01:07:51.333Z,0
2017-10-25T01:08:52.759Z,0
2017-10-25T01:09:54.181Z,0
2017-10-25T01:10:55.600Z,0
2017-10-25T01:11:57.014Z,0
2017-10-25T01:12:58.436Z,0
2017-10-25T01:14:00.468Z,0
2017-10-25T01:15:01.893Z,0
2017-10-25T01:16:03.329Z,0
2017-10-25T01:17:04.754Z,0
2017-10-25T01:18:06.180Z,0
2017-10-25T01:19:07.602Z,0
2017-10-25T01:20:09.030Z,0
2017-10-25T01:21:10.446Z,0
2017-10-25T01:22:11.874Z,0
2017-10-25T01:23:13.290Z,0
2017-10-25T01:24:14.709Z,0
2017-10-25T01:25:16.085Z,0
2017-10-25T01:26:17.506Z,0
2017-10-25T01:27:18.929Z,0
2017-10-25T01:28:20.351Z,0
2017-10-25T01:29:21.773Z,0
2017-10-25T01:30:23.197Z,0
2017-10-25T01:31:24.622Z,0
2017-10-25T01:32:26.047Z,0
2017-10-25T01:33:27.509Z,0
2017-10-25T01:34:28.936Z,0
2017-10-25T01:35:30.357Z,0
2017-10-25T01:36:31.876Z,0
2017-10-25T01:37:33.311Z,0
2017-10-25T01:38:34.724Z,0
2017-10-25T01:39:36.144Z,0
2017-10-25T01:40:37.564Z,0
2017-10-25T01:41:38.983Z,0
2017-10-25T01:42:40.402Z,0
2017-10-25T01:43:41.830Z,0
2017-10-25T01:44:43.264Z,0
2017-10-25T01:45:44.683Z,0
2017-10-25T01:46:46.100Z,0
2017-10-25T01:47:47.511Z,0
2017-10-25T01:48:48.941Z,0
2017-10-25T01:49:50.368Z,0
2017-10-25T01:50:51.789Z,0
2017-10-25T01:51:53.229Z,0
2017-10-25T01:52:54.670Z,0
2017-10-25T01:53:56.105Z,0
2017-10-25T01:54:57.530Z,0
2017-10-25T01:55:58.955Z,0
2017-10-25T01:57:00.381Z,0
2017-10-25T01:58:01.807Z,0
2017-10-25T01:59:03.231Z,0
2017-10-25T02:00:04.648Z,0
2017-10-25T02:01:06.066Z,0
2017-10-25T02:02:07.484Z,0
2017-10-25T02:03:08.906Z,0
2017-10-25T02:04:10.341Z,0
2017-10-25T02:05:11.767Z,0
2017-10-25T02:06:13.182Z,0
2017-10-25T02:07:14.603Z,0
2017-10-25T02:08:16.025Z,0
2017-10-25T02:09:17.445Z,0
2017-10-25T02:10:18.867Z,0
2017-10-25T02:11:20.284Z,0
2017-10-25T02:12:21.706Z,0
2017-10-25T02:13:23.131Z,0
2017-10-25T02:14:24.552Z,0
2017-10-25T02:15:25.973Z,0
2017-10-25T02:16:27.410Z,0
2017-10-25T02:17:28.832Z,0
2017-10-25T02:18:30.302Z,0
2017-10-25T02:19:31.725Z,0
2017-10-25T02:20:33.145Z,0
2017-10-25T02:21:34.665Z,0
2017-10-25T02:22:36.081Z,0
2017-10-25T02:23:37.505Z,0
2017-10-25T02:24:38.927Z,0
2017-10-25T02:25:40.352Z,0
2017-10-25T02:26:41.819Z,0
2017-10-25T02:27:43.231Z,0
2017-10-25T02:28:44.665Z,0
2017-10-25T02:29:46.081Z,0
2017-10-25T02:30:47.514Z,0
2017-10-25T02:31:48.936Z,0
2017-10-25T02:32:50.356Z,0
2017-10-25T02:33:51.782Z,0
2017-10-25T02:34:53.213Z,0
2017-10-25T02:35:54.639Z,0
2017-10-25T02:36:56.066Z,0
2017-10-25T02:37:57.484Z,0
2017-10-25T02:38:58.902Z,0
2017-10-25T02:40:00.327Z,0
2017-10-25T02:41:01.754Z,0
2017-10-25T02:42:03.184Z,0
2017-10-25T02:43:04.604Z,0
2017-10-25T02:44:06.022Z,0
2017-10-25T02:45:07.446Z,0
2017-10-25T02:46:08.863Z,0
2017-10-25T02:47:10.277Z,0
2017-10-25T02:48:11.698Z,0
2017-10-25T02:49:13.126Z,0
2017-10-25T02:50:14.558Z,0
2017-10-25T02:51:15.978Z,0
2017-10-25T02:52:17.397Z,0
2017-10-25T02:53:18.818Z,0
2017-10-25T02:54:20.240Z,0
2017-10-25T02:55:21.667Z,0
2017-10-25T02:56:23.085Z,0
2017-10-25T02:57:24.527Z,0
2017-10-25T02:58:25.960Z,0
2017-10-25T02:59:27.393Z,0
2017-10-25T03:00:28.815Z,0
2017-10-25T03:01:30.256Z,0
2017-10-25T03:02:32.430Z,0
2017-10-25T03:03:33.847Z,0
2017-10-25T03:04:35.267Z,0
2017-10-25T03:05:36.684Z,0
2017-10-25T03:06:38.097Z,0
2017-10-25T03:07:39.514Z,0
2017-10-25T03:08:40.933Z,0
2017-10-25T03:09:42.356Z,0
2017-10-25T03:10:43.778Z,0
2017-10-25T03:11:45.195Z,0
2017-10-25T03:12:46.614Z,0
2017-10-25T03:13:48.038Z,0
2017-10-25T03:14:49.464Z,0
2017-10-25T03:15:50.897Z,0
2017-10-25T03:16:52.313Z,0
2017-10-25T03:17:53.734Z,0
2017-10-25T03:18:55.155Z,0
2017-10-25T03:19:56.566Z,0
2017-10-25T03:20:57.988Z,0
2017-10-25T03:21:59.419Z,0
2017-10-25T03:23:00.836Z,0
2017-10-25T03:24:02.261Z,0
2017-10-25T03:25:03.685Z,0
2017-10-25T03:26:05.103Z,0
2017-10-25T03:27:06.519Z,0
2017-10-25T03:28:07.938Z,0
2017-10-25T03:29:09.353Z,0
2017-10-25T03:30:10.771Z,0
2017-10-25T03:31:12.218Z,0
2017-10-25T03:32:13.616Z,0
2017-10-25T03:33:15.918Z,0
2017-10-25T03:34:17.336Z,0
2017-10-25T03:35:18.758Z,0
2017-10-25T03:36:20.177Z,0
2017-10-25T03:37:21.595Z,0
2017-10-25T03:38:23.012Z,0
2017-10-25T03:39:24.435Z,0
2017-10-25T03:40:25.861Z,0
2017-10-25T03:41:27.277Z,0
2017-10-25T03:42:28.706Z,0
2017-10-25T03:43:30.143Z,0
2017-10-25T03:44:31.553Z,0
2017-10-25T03:45:32.980Z,0
2017-10-25T03:46:34.405Z,0
2017-10-25T03:47:35.830Z,0
2017-10-25T03:48:37.246Z,0
2017-10-25T03:49:38.674Z,0
2017-10-25T03:50:40.093Z,0
2017-10-25T03:51:41.512Z,0
2017-10-25T03:52:42.933Z,0
2017-10-25T03:53:44.355Z,0
2017-10-25T03:54:45.769Z,0
2017-10-25T03:55:47.184Z,0
2017-10-25T03:56:48.602Z,0
2017-10-25T03:57:50.022Z,0
2017-10-25T03:58:51.451Z,0
2017-10-25T03:59:52.874Z,0
2017-10-25T04:00:54.295Z,0
2017-10-25T04:01:55.711Z,0
2017-10-25T04:02:57.138Z,0
2017-10-25T04:03:58.566Z,0
2017-10-25T04:05:00.033Z,0
2017-10-25T04:06:01.460Z,0
2017-10-25T04:07:02.899Z,0
2017-10-25T04:08:04.313Z,0
2017-10-25T04:09:05.735Z,0
2017-10-25T04:10:07.185Z,0
2017-10-25T04:11:08.957Z,0
2017-10-25T04:12:10.365Z,0
2017-10-25T04:13:11.786Z,0
2017-10-25T04:14:13.217Z,0
2017-10-25T04:15:14.643Z,0
2017-10-25T04:16:16.057Z,0
2017-10-25T04:17:17.477Z,0
2017-10-25T04:18:18.911Z,0
2017-10-25T04:19:20.335Z,0
2017-10-25T04:20:21.759Z,0
2017-10-25T04:21:23.190Z,0
2017-10-25T04:22:24.614Z,0
2017-10-25T04:23:32.776Z,0
2017-10-25T04:24:45.178Z,0
2017-10-25T04:25:47.056Z,0
2017-10-25T04:26:48.490Z,0
2017-10-25T04:27:49.932Z,0
2017-10-25T04:28:51.365Z,0
2017-10-25T04:29:52.793Z,0
2017-10-25T04:30:54.207Z,0
2017-10-25T04:31:55.636Z,0
2017-10-25T04:32:57.052Z,0
2017-10-25T04:33:58.476Z,0
2017-10-25T04:34:59.901Z,0
2017-10-25T04:36:01.328Z,0
2017-10-25T04:37:02.747Z,0
2017-10-25T04:38:04.176Z,0
2017-10-25T04:39:05.605Z,0
2017-10-25T04:40:07.024Z,0
2017-10-25T04:41:08.443Z,0
2017-10-25T04:42:09.863Z,0
2017-10-25T04:43:11.274Z,0
2017-10-25T04:44:12.698Z,0
2017-10-25T04:45:14.163Z,0
2017-10-25T04:46:15.587Z,0
2017-10-25T04:47:17.029Z,0
2017-10-25T04:48:18.429Z,0
2017-10-25T04:49:19.849Z,0
2017-10-25T04:50:21.265Z,0
2017-10-25T04:51:22.684Z,0
2017-10-25T04:52:24.105Z,0
2017-10-25T04:53:25.528Z,0
2017-10-25T04:54:26.954Z,0
2017-10-25T04:55:28.375Z,0
2017-10-25T04:56:29.796Z,0
2017-10-25T04:57:31.346Z,0
2017-10-25T04:58:32.715Z,0
2017-10-25T04:59:34.174Z,0
2017-10-25T05:00:35.600Z,0
2017-10-25T05:01:37.114Z,0
2017-10-25T05:02:38.604Z,0
2017-10-25T05:03:40.025Z,0
2017-10-25T05:04:41.512Z,0
2017-10-25T05:05:42.943Z,0
2017-10-25T05:06:44.376Z,0
2017-10-25T05:07:45.797Z,0
2017-10-25T05:08:47.224Z,0
2017-10-25T05:09:48.651Z,0
2017-10-25T05:10:50.071Z,0
2017-10-25T05:11:51.490Z,0
2017-10-25T05:12:52.918Z,0
2017-10-25T05:13:54.340Z,0
2017-10-25T05:14:55.763Z,0
2017-10-25T05:15:57.176Z,0
2017-10-25T05:16:58.605Z,0
2017-10-25T05:18:00.038Z,0
2017-10-25T05:19:01.447Z,0
2017-10-25T05:20:02.876Z,0
2017-10-25T05:21:04.305Z,0
2017-10-25T05:22:05.733Z,0
2017-10-25T05:23:07.155Z,0
2017-10-25T05:24:08.575Z,0
2017-10-25T05:25:10.000Z,0
2017-10-25T05:26:11.415Z,0
2017-10-25T05:27:12.852Z,0
2017-10-25T05:28:14.277Z,0
2017-10-25T05:29:15.693Z,0
2017-10-25T05:30:17.120Z,0
2017-10-25T05:31:18.543Z,0
2017-10-25T05:32:19.967Z,0
2017-10-25T05:33:21.391Z,0
2017-10-25T05:34:22.809Z,0
2017-10-25T05:35:24.224Z,0
2017-10-25T05:36:25.640Z,0
2017-10-25T05:37:27.065Z,0
2017-10-25T05:38:28.484Z,0
2017-10-25T05:39:29.907Z,0
2017-10-25T05:40:31.330Z,0
2017-10-25T05:41:32.754Z,0
2017-10-25T05:42:34.179Z,0
2017-10-25T05:43:35.604Z,0
2017-10-25T05:44:36.982Z,0
2017-10-25T05:45:38.403Z,0
2017-10-25T05:46:39.821Z,0
2017-10-25T05:47:41.242Z,0
2017-10-25T05:48:42.660Z,0
2017-10-25T05:49:44.094Z,0
2017-10-25T05:50:45.523Z,0
2017-10-25T05:51:46.939Z,0
2017-10-25T05:52:48.361Z,0
2017-10-25T05:53:49.779Z,0
2017-10-25T05:54:51.201Z,0
2017-10-25T05:55:52.628Z,0
2017-10-25T05:56:54.058Z,0
2017-10-25T05:57:55.480Z,0
2017-10-25T05:58:56.906Z,0
2017-10-25T05:59:58.322Z,0
2017-10-25T06:00:59.745Z,0
2017-10-25T06:02:01.161Z,0
2017-10-25T06:03:02.578Z,0
2017-10-25T06:04:04.002Z,0
2017-10-25T06:05:05.430Z,0
2017-10-25T06:06:06.848Z,0
2017-10-25T06:07:08.268Z,0
2017-10-25T06:08:09.688Z,0
2017-10-25T06:09:11.112Z,0
2017-10-25T06:10:12.536Z,0
2017-10-25T06:11:13.966Z,0
2017-10-25T06:12:15.379Z,0
2017-10-25T06:13:16.808Z,0
2017-10-25T06:14:18.234Z,0
2017-10-25T06:15:19.659Z,0
2017-10-25T06:16:21.078Z,0
2017-10-25T06:17:22.490Z,0
2017-10-25T06:18:23.909Z,0
2017-10-25T06:19:25.335Z,0
2017-10-25T06:20:26.772Z,0
2017-10-25T06:21:28.190Z,0
2017-10-25T06:22:29.640Z,0
2017-10-25T06:23:31.062Z,0
2017-10-25T06:24:32.486Z,5
2017-10-25T06:25:33.903Z,5
2017-10-25T06:26:35.328Z,5
2017-10-25T06:27:36.762Z,5
2017-10-25T06:28:38.183Z,5
2017-10-25T06:29:39.620Z,5
2017-10-25T06:30:41.042Z,5
2017-10-25T06:31:42.470Z,5
2017-10-25T06:32:43.892Z,10
2017-10-25T06:33:45.319Z,10
2017-10-25T06:34:46.742Z,10
2017-10-25T06:35:48.171Z,10
2017-10-25T06:36:49.593Z,10
2017-10-25T06:37:51.020Z,10
2017-10-25T06:38:52.440Z,10
2017-10-25T06:39:53.868Z,10
2017-10-25T06:40:55.293Z,10
2017-10-25T06:41:57.696Z,10
2017-10-25T06:42:59.116Z,10
2017-10-25T06:44:00.548Z,10
2017-10-25T06:45:01.992Z,15
2017-10-25T06:46:03.451Z,15
2017-10-25T06:47:04.856Z,15
2017-10-25T06:48:06.793Z,15
2017-10-25T06:49:08.225Z,15
2017-10-25T06:50:09.654Z,15
2017-10-25T06:51:11.136Z,15
2017-10-25T06:52:12.561Z,15
2017-10-25T06:53:13.989Z,15
2017-10-25T06:54:15.415Z,15
2017-10-25T06:55:16.857Z,15
2017-10-25T06:56:18.281Z,15
2017-10-25T06:57:19.710Z,20
2017-10-25T06:58:21.140Z,20
2017-10-25T06:59:22.566Z,25
2017-10-25T07:00:23.985Z,25
2017-10-25T07:01:25.416Z,30
2017-10-25T07:02:26.834Z,30
2017-10-25T07:03:28.261Z,30
2017-10-25T07:04:29.688Z,35
2017-10-25T07:05:31.111Z,35
2017-10-25T07:06:32.532Z,35
2017-10-25T07:07:33.960Z,35
2017-10-25T07:08:35.390Z,40
2017-10-25T07:09:36.809Z,35
2017-10-25T07:10:38.228Z,30
2017-10-25T07:11:39.655Z,35
2017-10-25T07:12:41.075Z,30
2017-10-25T07:13:42.506Z,35
2017-10-25T07:14:43.945Z,30
2017-10-25T07:15:45.382Z,30
2017-10-25T07:16:46.805Z,30
2017-10-25T07:17:48.255Z,35
2017-10-25T07:18:49.671Z,35
2017-10-25T07:19:51.095Z,35
2017-10-25T07:20:52.528Z,30
2017-10-25T07:21:53.949Z,30
2017-10-25T07:22:55.375Z,35
2017-10-25T07:23:56.799Z,35
2017-10-25T07:24:58.224Z,25
2017-10-25T07:25:59.652Z,25
2017-10-25T07:27:01.089Z,25
2017-10-25T07:28:02.510Z,25
2017-10-25T07:29:03.936Z,25
2017-10-25T07:30:05.362Z,20
2017-10-25T07:31:06.784Z,35
2017-10-25T07:32:08.215Z,35
2017-10-25T07:33:09.640Z,40
2017-10-25T07:34:11.070Z,35
2017-10-25T07:35:12.498Z,40
2017-10-25T07:36:13.928Z,40
2017-10-25T07:37:15.351Z,40
2017-10-25T07:38:16.784Z,35
2017-10-25T07:39:18.207Z,45
2017-10-25T07:40:19.703Z,50
2017-10-25T07:41:21.118Z,50
2017-10-25T07:42:22.609Z,45
2017-10-25T07:43:24.038Z,40
2017-10-25T07:44:25.465Z,35
2017-10-25T07:45:26.960Z,40
2017-10-25T07:46:28.379Z,55
2017-10-25T07:47:29.809Z,50
2017-10-25T07:48:31.233Z,55
2017-10-25T07:49:32.661Z,60
2017-10-25T07:50:34.165Z,60
2017-10-25T07:51:35.586Z,60
2017-10-25T07:52:37.019Z,60
2017-10-25T07:53:38.448Z,55
2017-10-25T07:54:39.866Z,50
2017-10-25T07:55:41.296Z,45
2017-10-25T07:56:42.720Z,45
2017-10-25T07:57:44.147Z,50
2017-10-25T07:58:45.577Z,45
2017-10-25T07:59:47.002Z,45
2017-10-25T08:00:48.438Z,50
2017-10-25T08:01:49.855Z,55
2017-10-25T08:02:51.278Z,50
2017-10-25T08:03:52.710Z,40
2017-10-25T08:04:54.134Z,35
2017-10-25T08:05:55.570Z,50
2017-10-25T08:06:57.013Z,55
2017-10-25T08:07:58.440Z,60
2017-10-25T08:08:59.857Z,60
2017-10-25T08:10:01.285Z,60
2017-10-25T08:11:02.701Z,60
2017-10-25T08:12:04.129Z,55
2017-10-25T08:13:05.564Z,50
2017-10-25T08:14:06.997Z,55
2017-10-25T08:15:08.422Z,70
2017-10-25T08:16:09.844Z,60
2017-10-25T08:17:11.280Z,65
2017-10-25T08:18:12.697Z,70
2017-10-25T08:19:14.121Z,80
2017-10-25T08:20:15.550Z,75
2017-10-25T08:21:16.978Z,80
2017-10-25T08:22:18.408Z,85
2017-10-25T08:23:19.840Z,85
2017-10-25T08:24:21.283Z,90
2017-10-25T08:25:22.705Z,90
2017-10-25T08:26:24.125Z,90
2017-10-25T08:27:25.560Z,90
2017-10-25T08:28:26.987Z,85
2017-10-25T08:29:28.419Z,85
2017-10-25T08:30:29.859Z,85
2017-10-25T08:31:31.289Z,85
2017-10-25T08:32:32.718Z,85
2017-10-25T08:33:34.148Z,85
2017-10-25T08:34:35.579Z,80
2017-10-25T08:35:37.011Z,80
2017-10-25T08:36:38.428Z,80
2017-10-25T08:37:39.858Z,75
2017-10-25T08:38:41.278Z,75
2017-10-25T08:39:42.696Z,85
2017-10-25T08:40:44.132Z,70
2017-10-25T08:41:45.543Z,60
2017-10-25T08:42:47.017Z,55
2017-10-25T08:43:48.453Z,70
2017-10-25T08:44:49.889Z,70
2017-10-25T08:45:51.327Z,70
2017-10-25T08:46:52.771Z,80
2017-10-25T08:47:54.187Z,75
2017-10-25T08:48:55.616Z,65
2017-10-25T08:49:57.041Z,65
2017-10-25T08:50:58.481Z,95
2017-10-25T08:51:59.928Z,110
2017-10-25T08:53:01.350Z,110
2017-10-25T08:54:02.779Z,115
2017-10-25T08:55:04.209Z,105
2017-10-25T08:56:05.640Z,105
2017-10-25T08:57:07.071Z,110
2017-10-25T08:58:08.521Z,105
2017-10-25T08:59:09.947Z,95
2017-10-25T09:00:11.381Z,80
2017-10-25T09:01:12.821Z,90
2017-10-25T09:02:14.273Z,85
2017-10-25T09:03:16.517Z,90
2017-10-25T09:04:17.949Z,105
2017-10-25T09:05:19.381Z,110
2017-10-25T09:06:20.807Z,100
2017-10-25T09:07:22.235Z,100
2017-10-25T09:08:23.659Z,75
2017-10-25T09:09:25.102Z,100
2017-10-25T09:10:26.533Z,95
2017-10-25T09:11:27.951Z,70
2017-10-25T09:12:29.375Z,55
2017-10-25T09:13:30.815Z,50
2017-10-25T09:14:32.246Z,50
2017-10-25T09:15:33.671Z,75
2017-10-25T09:16:35.096Z,80
2017-10-25T09:17:36.521Z,95
2017-10-25T09:18:37.948Z,110
2017-10-25T09:19:39.393Z,105
2017-10-25T09:20:40.804Z,75
2017-10-25T09:21:42.233Z,60
2017-10-25T09:22:43.668Z,65
2017-10-25T09:23:45.090Z,90
2017-10-25T09:24:46.513Z,95
2017-10-25T09:25:47.941Z,85
2017-10-25T09:26:49.380Z,85
2017-10-25T09:27:50.823Z,105
2017-10-25T09:28:52.252Z,70
2017-10-25T09:29:53.676Z,45
2017-10-25T09:30:55.110Z,60
2017-10-25T09:31:56.541Z,70
2017-10-25T09:32:57.988Z,115
2017-10-25T09:33:59.424Z,120
2017-10-25T09:35:00.842Z,80
2017-10-25T09:36:02.286Z,60
2017-10-25T09:37:03.704Z,60
2017-10-25T09:38:05.135Z,85
2017-10-25T09:39:06.557Z,125
2017-10-25T09:40:07.979Z,140
2017-10-25T09:41:09.400Z,125
2017-10-25T09:42:10.823Z,125
2017-10-25T09:43:12.252Z,165
2017-10-25T09:44:13.673Z,160
2017-10-25T09:45:16.462Z,125
2017-10-25T09:46:17.891Z,125
2017-10-25T09:47:19.326Z,90
2017-10-25T09:48:20.757Z,110
2017-10-25T09:49:22.185Z,120
2017-10-25T09:50:23.614Z,110
2017-10-25T09:51:25.043Z,120
2017-10-25T09:52:26.486Z,110
2017-10-25T09:53:27.914Z,100
2017-10-25T09:54:29.343Z,100
2017-10-25T09:55:30.771Z,95
2017-10-25T09:56:32.196Z,85
2017-10-25T09:57:33.625Z,120
2017-10-25T09:58:35.049Z,115
2017-10-25T09:59:36.492Z,80
2017-10-25T10:00:37.921Z,85
2017-10-25T10:01:39.338Z,55
2017-10-25T10:02:40.760Z,40
2017-10-25T10:03:42.196Z,35
2017-10-25T10:04:43.627Z,30
2017-10-25T10:05:45.045Z,35
2017-10-25T10:06:46.472Z,35
2017-10-25T10:07:47.899Z,30
2017-10-25T10:08:49.328Z,35
2017-10-25T10:09:50.751Z,60
2017-10-25T10:10:52.189Z,50
2017-10-25T10:11:53.618Z,50
2017-10-25T10:12:55.047Z,45
2017-10-25T10:13:56.485Z,45
2017-10-25T10:14:57.916Z,55
2017-10-25T10:15:59.339Z,75
2017-10-25T10:17:00.780Z,110
2017-10-25T10:18:02.210Z,105
2017-10-25T10:19:03.641Z,80
2017-10-25T10:20:05.091Z,65
2017-10-25T10:21:06.513Z,85
2017-10-25T10:22:07.954Z,105
2017-10-25T10:23:09.385Z,95
2017-10-25T10:24:10.853Z,70
2017-10-25T10:25:12.274Z,80
2017-10-25T10:26:13.706Z,55
2017-10-25T10:27:15.130Z,45
2017-10-25T10:28:16.557Z,45
2017-10-25T10:29:17.992Z,40
2017-10-25T10:30:19.417Z,35
2017-10-25T10:31:20.851Z,45
2017-10-25T10:32:22.236Z,60
2017-10-25T10:33:23.671Z,75
2017-10-25T10:34:25.113Z,80
2017-10-25T10:35:26.554Z,75
2017-10-25T10:36:27.980Z,65
2017-10-25T10:37:29.406Z,80
2017-10-25T10:38:30.833Z,80
2017-10-25T10:39:32.257Z,60
2017-10-25T10:40:33.687Z,60
2017-10-25T10:41:35.119Z,55
2017-10-25T10:42:36.561Z,70
2017-10-25T10:43:38.022Z,80
2017-10-25T10:44:39.450Z,90
2017-10-25T10:45:40.887Z,80
2017-10-25T10:46:42.311Z,60
2017-10-25T10:47:43.747Z,45
2017-10-25T10:48:45.170Z,50
2017-10-25T10:49:46.657Z,45
2017-10-25T10:50:48.081Z,40
2017-10-25T10:51:49.587Z,40
2017-10-25T10:52:51.020Z,35
2017-10-25T10:53:52.445Z,30
2017-10-25T10:54:53.875Z,30
2017-10-25T10:55:55.300Z,25
2017-10-25T10:56:56.735Z,25
2017-10-25T10:57:58.171Z,25
2017-10-25T10:58:59.604Z,25
2017-10-25T11:00:01.040Z,25
2017-10-25T11:01:02.481Z,25
2017-10-25T11:02:03.909Z,25
2017-10-25T11:03:05.336Z,30
2017-10-25T11:04:06.766Z,30
2017-10-25T11:05:08.197Z,25
2017-10-25T11:06:09.630Z,25
2017-10-25T11:07:11.067Z,25
2017-10-25T11:08:12.511Z,25
2017-10-25T11:09:13.939Z,30
2017-10-25T11:10:15.368Z,35
2017-10-25T11:11:16.790Z,35
2017-10-25T11:12:18.217Z,35
2017-10-25T11:13:19.649Z,40
2017-10-25T11:14:21.079Z,45
2017-10-25T11:15:22.511Z,30
2017-10-25T11:16:23.941Z,20
2017-10-25T11:17:25.356Z,45
2017-10-25T11:18:26.741Z,40
2017-10-25T11:19:28.194Z,40
2017-10-25T11:20:29.625Z,40
2017-10-25T11:21:31.050Z,40
2017-10-25T11:22:32.481Z,40
2017-10-25T11:23:33.909Z,40
2017-10-25T11:24:35.328Z,35
2017-10-25T11:25:36.753Z,35
2017-10-25T11:26:38.187Z,35
2017-10-25T11:27:39.618Z,30
2017-10-25T11:28:41.043Z,30
2017-10-25T11:29:42.471Z,30
2017-10-25T11:30:43.895Z,25
2017-10-25T11:31:45.320Z,25
2017-10-25T11:32:46.754Z,25
2017-10-25T11:33:48.189Z,25
2017-10-25T11:34:49.599Z,25
2017-10-25T11:35:51.024Z,25
2017-10-25T11:36:52.462Z,25
2017-10-25T11:37:53.888Z,25
2017-10-25T11:38:55.322Z,20
2017-10-25T11:39:56.749Z,25
2017-10-25T11:40:58.178Z,30
2017-10-25T11:41:59.603Z,30
2017-10-25T11:43:01.028Z,30
2017-10-25T11:44:02.457Z,30
2017-10-25T11:45:03.883Z,30
2017-10-25T11:46:05.311Z,35
2017-10-25T11:47:06.738Z,30
2017-10-25T11:48:08.174Z,35
2017-10-25T11:49:09.630Z,35
2017-10-25T11:50:11.054Z,35
2017-10-25T11:51:13.129Z,35
2017-10-25T11:52:14.541Z,30
2017-10-25T11:53:16.922Z,30
2017-10-25T11:54:18.345Z,25
2017-10-25T11:55:19.767Z,25
2017-10-25T11:56:21.188Z,25
2017-10-25T11:57:22.607Z,25
2017-10-25T11:58:24.051Z,20
2017-10-25T11:59:25.464Z,20
2017-10-25T12:00:26.891Z,20
2017-10-25T12:01:28.315Z,15
2017-10-25T12:02:29.750Z,15
2017-10-25T12:03:31.172Z,15
2017-10-25T12:04:32.599Z,15
2017-10-25T12:05:34.023Z,20
2017-10-25T12:06:35.446Z,20
2017-10-25T12:07:36.880Z,20
2017-10-25T12:08:38.299Z,20
2017-10-25T12:09:39.718Z,20
2017-10-25T12:10:41.145Z,20
2017-10-25T12:11:42.574Z,20
2017-10-25T12:12:44.011Z,25
2017-10-25T12:13:45.442Z,20
2017-10-25T12:14:46.870Z,25
2017-10-25T12:15:48.293Z,20
2017-10-25T12:16:49.718Z,20
2017-10-25T12:17:51.144Z,15
2017-10-25T12:18:52.576Z,15
2017-10-25T12:19:54.133Z,15
2017-10-25T12:20:55.549Z,15
2017-10-25T12:21:56.982Z,15
2017-10-25T12:22:58.406Z,15
2017-10-25T12:23:59.861Z,15
2017-10-25T12:25:01.284Z,15
2017-10-25T12:26:02.706Z,15
2017-10-25T12:27:04.138Z,15
2017-10-25T12:28:05.604Z,15
2017-10-25T12:29:07.028Z,15
2017-10-25T12:30:08.447Z,15
2017-10-25T12:31:09.869Z,20
2017-10-25T12:32:11.291Z,25
2017-10-25T12:33:12.714Z,25
2017-10-25T12:34:14.135Z,25
2017-10-25T12:35:15.567Z,25
2017-10-25T12:36:16.985Z,30
2017-10-25T12:37:18.407Z,30
2017-10-25T12:38:19.836Z,25
2017-10-25T12:39:21.270Z,25
2017-10-25T12:40:22.690Z,30
2017-10-25T12:41:24.125Z,25
2017-10-25T12:42:25.546Z,20
2017-10-25T12:43:26.974Z,20
2017-10-25T12:44:28.400Z,20
2017-10-25T12:45:29.831Z,20
2017-10-25T12:46:31.250Z,20
2017-10-25T12:47:32.677Z,20
2017-10-25T12:48:34.103Z,20
2017-10-25T12:49:35.528Z,20
2017-10-25T12:50:36.978Z,20
2017-10-25T12:51:38.421Z,25
2017-10-25T12:52:39.854Z,20
2017-10-25T12:53:41.273Z,15
2017-10-25T12:54:42.697Z,15
2017-10-25T12:55:44.127Z,15
2017-10-25T12:56:46.304Z,15
2017-10-25T12:57:47.734Z,15
2017-10-25T12:58:49.155Z,10
2017-10-25T12:59:50.572Z,10
2017-10-25T13:00:52.000Z,10
2017-10-25T13:01:53.427Z,15
2017-10-25T13:02:54.860Z,15
2017-10-25T13:03:56.294Z,15
2017-10-25T13:04:57.725Z,10
2017-10-25T13:05:59.218Z,10
2017-10-25T13:07:00.645Z,10
2017-10-25T13:08:02.073Z,20
2017-10-25T13:09:03.497Z,20
2017-10-25T13:10:04.919Z,25
2017-10-25T13:11:06.355Z,30
2017-10-25T13:12:07.774Z,30
2017-10-25T13:13:09.198Z,30
2017-10-25T13:14:10.634Z,35
2017-10-25T13:15:12.065Z,35
2017-10-25T13:16:13.489Z,35
2017-10-25T13:17:14.916Z,35
2017-10-25T13:18:16.342Z,30
2017-10-25T13:19:17.776Z,25
2017-10-25T13:20:19.199Z,25
2017-10-25T13:21:20.619Z,25
2017-10-25T13:22:22.040Z,25
2017-10-25T13:23:23.472Z,15
2017-10-25T13:24:24.903Z,25
2017-10-25T13:25:26.329Z,20
2017-10-25T13:26:27.756Z,15
2017-10-25T13:27:29.184Z,15
2017-10-25T13:28:30.610Z,20
2017-10-25T13:29:32.041Z,20
2017-10-25T13:30:33.472Z,20
2017-10-25T13:31:34.906Z,25
2017-10-25T13:32:36.340Z,25
2017-10-25T13:33:37.780Z,25
2017-10-25T13:34:39.198Z,20
2017-10-25T13:35:40.634Z,20
2017-10-25T13:36:42.064Z,20
2017-10-25T13:37:43.492Z,15
2017-10-25T13:38:44.919Z,15
2017-10-25T13:39:46.369Z,15
2017-10-25T13:40:47.789Z,20
2017-10-25T13:41:49.210Z,15
2017-10-25T13:42:50.640Z,15
2017-10-25T13:43:52.070Z,10
2017-10-25T13:44:53.514Z,15
2017-10-25T13:45:54.947Z,15
2017-10-25T13:46:56.368Z,10
2017-10-25T13:47:57.793Z,15
2017-10-25T13:48:59.220Z,15
2017-10-25T13:50:00.644Z,15
2017-10-25T13:51:02.086Z,20
2017-10-25T13:52:03.521Z,15
2017-10-25T13:53:04.950Z,15
2017-10-25T13:54:06.391Z,10
2017-10-25T13:55:07.833Z,10
2017-10-25T13:56:09.313Z,15
2017-10-25T13:57:10.756Z,15
2017-10-25T13:58:12.221Z,15
2017-10-25T13:59:13.648Z,10
2017-10-25T14:00:15.139Z,15
2017-10-25T14:01:16.566Z,20
2017-10-25T14:02:18.001Z,20
2017-10-25T14:03:19.524Z,15
2017-10-25T14:04:20.958Z,15
2017-10-25T14:05:22.386Z,15
2017-10-25T14:06:23.804Z,15
2017-10-25T14:07:25.229Z,20
2017-10-25T14:08:26.660Z,25
2017-10-25T14:09:28.091Z,25
2017-10-25T14:10:29.554Z,20
2017-10-25T14:11:30.996Z,20
2017-10-25T14:12:32.424Z,20
2017-10-25T14:13:33.853Z,25
2017-10-25T14:14:35.284Z,25
2017-10-25T14:15:36.708Z,20
2017-10-25T14:16:38.137Z,20
2017-10-25T14:17:39.573Z,25
2017-10-25T14:18:41.002Z,35
2017-10-25T14:19:42.433Z,40
2017-10-25T14:20:43.851Z,55
2017-10-25T14:21:45.278Z,45
2017-10-25T14:22:46.715Z,30
2017-10-25T14:23:48.148Z,25
2017-10-25T14:24:49.579Z,25
2017-10-25T14:25:50.999Z,25
2017-10-25T14:26:52.425Z,20
2017-10-25T14:27:53.850Z,15
2017-10-25T14:28:56.023Z,20
2017-10-25T14:29:57.444Z,25
2017-10-25T14:30:58.868Z,25
2017-10-25T14:32:00.298Z,20
2017-10-25T14:33:01.718Z,15
2017-10-25T14:34:03.166Z,15
2017-10-25T14:35:04.587Z,20
2017-10-25T14:36:06.012Z,20
2017-10-25T14:37:07.454Z,20
2017-10-25T14:38:08.886Z,25
2017-10-25T14:39:10.329Z,20
2017-10-25T14:40:11.748Z,25
2017-10-25T14:41:13.179Z,20
2017-10-25T14:42:14.601Z,20
2017-10-25T14:43:16.036Z,25
2017-10-25T14:44:17.467Z,25
2017-10-25T14:45:18.884Z,20
2017-10-25T14:46:20.318Z,20
2017-10-25T14:47:21.747Z,20
2017-10-25T14:48:23.168Z,15